sensor_id;sensor_type;location;lat;lon;timestamp;P1;durP1;ratioP1;P2;durP2;ratioP2
57832;SDS011;43667;53.036;6.740;2023-02-02T00:01:38;26.30;;;3.75;;
57832;SDS011;43667;53.036;6.740;2023-02-02T00:04:03;35.42;;;4.10;;
57832;SDS011;43667;53.036;6.740;2023-02-02T00:06:29;31.60;;;4.03;;
57832;SDS011;43667;53.036;6.740;2023-02-02T00:08:56;22.77;;;3.58;;
57832;SDS011;43667;53.036;6.740;2023-02-02T00:11:23;31.27;;;4.05;;
57832;SDS011;43667;53.036;6.740;2023-02-02T00:13:50;28.83;;;3.70;;
57832;SDS011;43667;53.036;6.740;2023-02-02T00:18:50;26.83;;;3.80;;
57832;SDS011;43667;53.036;6.740;2023-02-02T00:21:16;29.75;;;4.63;;
57832;SDS011;43667;53.036;6.740;2023-02-02T00:23:41;26.80;;;3.88;;
57832;SDS011;43667;53.036;6.740;2023-02-02T00:26:07;28.20;;;3.50;;
57832;SDS011;43667;53.036;6.740;2023-02-02T00:28:33;30.30;;;3.95;;
57832;SDS011;43667;53.036;6.740;2023-02-02T00:30:58;31.95;;;4.55;;
57832;SDS011;43667;53.036;6.740;2023-02-02T00:33:24;32.95;;;4.63;;
57832;SDS011;43667;53.036;6.740;2023-02-02T00:35:52;31.52;;;5.13;;
57832;SDS011;43667;53.036;6.740;2023-02-02T00:38:18;35.97;;;4.93;;
57832;SDS011;43667;53.036;6.740;2023-02-02T00:40:44;44.83;;;5.05;;
57832;SDS011;43667;53.036;6.740;2023-02-02T00:43:10;30.08;;;4.45;;
57832;SDS011;43667;53.036;6.740;2023-02-02T00:45:36;26.50;;;4.30;;
57832;SDS011;43667;53.036;6.740;2023-02-02T00:48:02;34.40;;;4.00;;
57832;SDS011;43667;53.036;6.740;2023-02-02T00:50:29;30.02;;;4.07;;
57832;SDS011;43667;53.036;6.740;2023-02-02T00:52:54;38.42;;;4.78;;
57832;SDS011;43667;53.036;6.740;2023-02-02T00:55:23;29.83;;;4.05;;
57832;SDS011;43667;53.036;6.740;2023-02-02T00:57:49;37.53;;;4.57;;
57832;SDS011;43667;53.036;6.740;2023-02-02T01:00:16;33.70;;;4.55;;
57832;SDS011;43667;53.036;6.740;2023-02-02T01:02:45;29.88;;;4.35;;
57832;SDS011;43667;53.036;6.740;2023-02-02T01:05:11;34.17;;;5.07;;
57832;SDS011;43667;53.036;6.740;2023-02-02T01:07:37;31.80;;;4.95;;
57832;SDS011;43667;53.036;6.740;2023-02-02T01:10:04;31.05;;;3.85;;
57832;SDS011;43667;53.036;6.740;2023-02-02T01:12:30;35.55;;;4.78;;
57832;SDS011;43667;53.036;6.740;2023-02-02T01:14:56;33.17;;;5.10;;
57832;SDS011;43667;53.036;6.740;2023-02-02T01:17:21;36.38;;;4.55;;
57832;SDS011;43667;53.036;6.740;2023-02-02T01:19:47;37.47;;;6.18;;
57832;SDS011;43667;53.036;6.740;2023-02-02T01:22:12;38.67;;;5.00;;
57832;SDS011;43667;53.036;6.740;2023-02-02T01:24:38;28.65;;;4.53;;
57832;SDS011;43667;53.036;6.740;2023-02-02T01:27:03;40.25;;;5.85;;
57832;SDS011;43667;53.036;6.740;2023-02-02T01:29:29;32.47;;;4.22;;
57832;SDS011;43667;53.036;6.740;2023-02-02T01:31:55;39.55;;;5.45;;
57832;SDS011;43667;53.036;6.740;2023-02-02T01:34:20;38.72;;;5.15;;
57832;SDS011;43667;53.036;6.740;2023-02-02T01:36:46;30.40;;;3.80;;
57832;SDS011;43667;53.036;6.740;2023-02-02T01:39:12;34.17;;;4.82;;
57832;SDS011;43667;53.036;6.740;2023-02-02T01:41:38;27.02;;;4.20;;
57832;SDS011;43667;53.036;6.740;2023-02-02T01:44:05;37.28;;;5.22;;
57832;SDS011;43667;53.036;6.740;2023-02-02T01:47:09;35.45;;;4.35;;
57832;SDS011;43667;53.036;6.740;2023-02-02T01:49:35;33.65;;;4.13;;
57832;SDS011;43667;53.036;6.740;2023-02-02T01:52:02;31.05;;;4.95;;
57832;SDS011;43667;53.036;6.740;2023-02-02T01:54:33;38.47;;;4.90;;
57832;SDS011;43667;53.036;6.740;2023-02-02T01:57:05;40.85;;;4.90;;
57832;SDS011;43667;53.036;6.740;2023-02-02T01:59:40;29.55;;;3.90;;
57832;SDS011;43667;53.036;6.740;2023-02-02T02:02:08;28.23;;;4.68;;
57832;SDS011;43667;53.036;6.740;2023-02-02T02:04:35;29.02;;;4.47;;
57832;SDS011;43667;53.036;6.740;2023-02-02T02:07:01;23.35;;;3.65;;
57832;SDS011;43667;53.036;6.740;2023-02-02T02:09:28;27.80;;;4.10;;
57832;SDS011;43667;53.036;6.740;2023-02-02T02:11:53;29.88;;;3.67;;
57832;SDS011;43667;53.036;6.740;2023-02-02T02:14:19;33.28;;;4.30;;
57832;SDS011;43667;53.036;6.740;2023-02-02T02:22:59;36.47;;;4.97;;
57832;SDS011;43667;53.036;6.740;2023-02-02T02:26:20;33.50;;;4.60;;
57832;SDS011;43667;53.036;6.740;2023-02-02T02:38:03;36.28;;;4.13;;
57832;SDS011;43667;53.036;6.740;2023-02-02T02:40:52;32.22;;;4.05;;
57832;SDS011;43667;53.036;6.740;2023-02-02T02:43:23;28.05;;;4.40;;
57832;SDS011;43667;53.036;6.740;2023-02-02T02:45:53;27.63;;;4.75;;
57832;SDS011;43667;53.036;6.740;2023-02-02T02:48:19;36.20;;;4.82;;
57832;SDS011;43667;53.036;6.740;2023-02-02T02:50:45;45.35;;;6.35;;
57832;SDS011;43667;53.036;6.740;2023-02-02T02:53:12;38.83;;;4.55;;
57832;SDS011;43667;53.036;6.740;2023-02-02T02:55:45;27.80;;;4.60;;
57832;SDS011;43667;53.036;6.740;2023-02-02T03:03:41;33.33;;;4.80;;
57832;SDS011;43667;53.036;6.740;2023-02-02T03:06:11;39.05;;;4.45;;
57832;SDS011;43667;53.036;6.740;2023-02-02T03:08:51;38.67;;;4.72;;
57832;SDS011;43667;53.036;6.740;2023-02-02T03:11:27;36.45;;;4.50;;
57832;SDS011;43667;53.036;6.740;2023-02-02T03:13:53;35.22;;;4.38;;
57832;SDS011;43667;53.036;6.740;2023-02-02T03:16:20;28.80;;;4.63;;
57832;SDS011;43667;53.036;6.740;2023-02-02T03:18:45;25.02;;;3.45;;
57832;SDS011;43667;53.036;6.740;2023-02-02T03:21:11;34.45;;;4.47;;
57832;SDS011;43667;53.036;6.740;2023-02-02T03:23:37;28.70;;;3.55;;
57832;SDS011;43667;53.036;6.740;2023-02-02T03:26:03;35.38;;;5.38;;
57832;SDS011;43667;53.036;6.740;2023-02-02T03:28:29;35.50;;;4.07;;
57832;SDS011;43667;53.036;6.740;2023-02-02T03:30:56;31.58;;;3.65;;
57832;SDS011;43667;53.036;6.740;2023-02-02T03:33:25;35.05;;;5.50;;
57832;SDS011;43667;53.036;6.740;2023-02-02T03:35:51;21.17;;;3.90;;
57832;SDS011;43667;53.036;6.740;2023-02-02T03:38:16;27.17;;;5.00;;
57832;SDS011;43667;53.036;6.740;2023-02-02T03:40:42;26.30;;;3.67;;
57832;SDS011;43667;53.036;6.740;2023-02-02T03:43:07;29.77;;;4.47;;
57832;SDS011;43667;53.036;6.740;2023-02-02T03:45:33;29.17;;;3.40;;
57832;SDS011;43667;53.036;6.740;2023-02-02T03:48:01;23.30;;;3.42;;
57832;SDS011;43667;53.036;6.740;2023-02-02T03:50:28;17.40;;;3.08;;
57832;SDS011;43667;53.036;6.740;2023-02-02T03:52:53;27.42;;;3.28;;
57832;SDS011;43667;53.036;6.740;2023-02-02T03:55:19;13.65;;;2.03;;
57832;SDS011;43667;53.036;6.740;2023-02-02T03:57:45;18.55;;;2.33;;
57832;SDS011;43667;53.036;6.740;2023-02-02T04:00:11;9.68;;;1.65;;
57832;SDS011;43667;53.036;6.740;2023-02-02T04:02:36;12.18;;;1.75;;
57832;SDS011;43667;53.036;6.740;2023-02-02T04:05:02;14.32;;;1.80;;
57832;SDS011;43667;53.036;6.740;2023-02-02T04:07:28;7.85;;;1.30;;
57832;SDS011;43667;53.036;6.740;2023-02-02T04:09:53;7.90;;;1.25;;
57832;SDS011;43667;53.036;6.740;2023-02-02T04:12:19;5.90;;;1.02;;
57832;SDS011;43667;53.036;6.740;2023-02-02T04:14:45;6.40;;;1.33;;
57832;SDS011;43667;53.036;6.740;2023-02-02T04:17:10;11.55;;;1.60;;
57832;SDS011;43667;53.036;6.740;2023-02-02T04:19:36;6.25;;;0.73;;
57832;SDS011;43667;53.036;6.740;2023-02-02T04:22:02;5.80;;;0.82;;
57832;SDS011;43667;53.036;6.740;2023-02-02T04:24:28;4.05;;;0.77;;
57832;SDS011;43667;53.036;6.740;2023-02-02T04:26:53;4.18;;;0.75;;
57832;SDS011;43667;53.036;6.740;2023-02-02T04:29:19;7.15;;;0.77;;
57832;SDS011;43667;53.036;6.740;2023-02-02T04:31:44;7.35;;;0.80;;
57832;SDS011;43667;53.036;6.740;2023-02-02T04:34:10;5.45;;;1.17;;
57832;SDS011;43667;53.036;6.740;2023-02-02T04:36:35;7.03;;;0.82;;
57832;SDS011;43667;53.036;6.740;2023-02-02T04:39:01;6.38;;;0.85;;
57832;SDS011;43667;53.036;6.740;2023-02-02T04:41:26;3.10;;;0.68;;
57832;SDS011;43667;53.036;6.740;2023-02-02T04:43:52;3.53;;;0.77;;
57832;SDS011;43667;53.036;6.740;2023-02-02T04:46:18;7.72;;;1.05;;
57832;SDS011;43667;53.036;6.740;2023-02-02T04:48:43;8.02;;;0.90;;
57832;SDS011;43667;53.036;6.740;2023-02-02T04:51:12;7.47;;;0.93;;
57832;SDS011;43667;53.036;6.740;2023-02-02T04:53:39;6.38;;;0.70;;
57832;SDS011;43667;53.036;6.740;2023-02-02T04:56:06;4.00;;;0.80;;
57832;SDS011;43667;53.036;6.740;2023-02-02T04:58:39;6.43;;;0.88;;
57832;SDS011;43667;53.036;6.740;2023-02-02T05:01:10;6.70;;;1.00;;
57832;SDS011;43667;53.036;6.740;2023-02-02T05:03:37;6.10;;;1.10;;
57832;SDS011;43667;53.036;6.740;2023-02-02T05:06:03;7.57;;;0.98;;
57832;SDS011;43667;53.036;6.740;2023-02-02T05:08:29;5.38;;;1.17;;
57832;SDS011;43667;53.036;6.740;2023-02-02T05:10:55;4.72;;;0.90;;
57832;SDS011;43667;53.036;6.740;2023-02-02T05:13:20;5.03;;;0.80;;
57832;SDS011;43667;53.036;6.740;2023-02-02T05:15:46;8.38;;;1.05;;
57832;SDS011;43667;53.036;6.740;2023-02-02T05:18:12;6.05;;;0.90;;
57832;SDS011;43667;53.036;6.740;2023-02-02T05:20:38;10.18;;;1.30;;
57832;SDS011;43667;53.036;6.740;2023-02-02T05:23:03;9.15;;;1.60;;
57832;SDS011;43667;53.036;6.740;2023-02-02T05:25:29;6.25;;;0.90;;
57832;SDS011;43667;53.036;6.740;2023-02-02T05:27:55;5.75;;;0.90;;
57832;SDS011;43667;53.036;6.740;2023-02-02T05:30:20;10.55;;;1.77;;
57832;SDS011;43667;53.036;6.740;2023-02-02T05:32:46;8.90;;;0.95;;
57832;SDS011;43667;53.036;6.740;2023-02-02T05:35:11;10.85;;;1.25;;
57832;SDS011;43667;53.036;6.740;2023-02-02T05:37:37;10.00;;;0.80;;
57832;SDS011;43667;53.036;6.740;2023-02-02T05:40:03;10.95;;;1.15;;
57832;SDS011;43667;53.036;6.740;2023-02-02T05:42:28;10.00;;;1.02;;
57832;SDS011;43667;53.036;6.740;2023-02-02T05:44:54;12.45;;;1.42;;
57832;SDS011;43667;53.036;6.740;2023-02-02T05:47:20;8.20;;;1.52;;
57832;SDS011;43667;53.036;6.740;2023-02-02T05:49:45;7.78;;;1.05;;
57832;SDS011;43667;53.036;6.740;2023-02-02T05:52:15;7.90;;;1.00;;
57832;SDS011;43667;53.036;6.740;2023-02-02T05:54:43;9.20;;;1.35;;
57832;SDS011;43667;53.036;6.740;2023-02-02T05:57:09;8.35;;;1.55;;
57832;SDS011;43667;53.036;6.740;2023-02-02T05:59:35;7.32;;;1.33;;
57832;SDS011;43667;53.036;6.740;2023-02-02T06:02:00;7.03;;;1.73;;
57832;SDS011;43667;53.036;6.740;2023-02-02T06:04:26;9.75;;;1.23;;
57832;SDS011;43667;53.036;6.740;2023-02-02T06:06:51;8.13;;;1.05;;
57832;SDS011;43667;53.036;6.740;2023-02-02T06:09:17;8.95;;;1.25;;
57832;SDS011;43667;53.036;6.740;2023-02-02T06:11:43;17.27;;;2.25;;
57832;SDS011;43667;53.036;6.740;2023-02-02T06:14:09;7.68;;;1.15;;
57832;SDS011;43667;53.036;6.740;2023-02-02T06:16:34;13.50;;;1.50;;
57832;SDS011;43667;53.036;6.740;2023-02-02T06:19:00;12.20;;;1.42;;
57832;SDS011;43667;53.036;6.740;2023-02-02T06:21:26;10.77;;;1.25;;
57832;SDS011;43667;53.036;6.740;2023-02-02T06:23:55;8.38;;;1.08;;
57832;SDS011;43667;53.036;6.740;2023-02-02T06:26:21;14.50;;;1.50;;
57832;SDS011;43667;53.036;6.740;2023-02-02T06:28:48;11.52;;;1.60;;
57832;SDS011;43667;53.036;6.740;2023-02-02T06:31:16;10.20;;;1.65;;
57832;SDS011;43667;53.036;6.740;2023-02-02T06:33:45;7.18;;;1.25;;
57832;SDS011;43667;53.036;6.740;2023-02-02T06:36:11;5.95;;;1.10;;
57832;SDS011;43667;53.036;6.740;2023-02-02T06:38:37;6.78;;;0.85;;
57832;SDS011;43667;53.036;6.740;2023-02-02T06:41:03;12.05;;;1.23;;
57832;SDS011;43667;53.036;6.740;2023-02-02T06:43:28;13.48;;;1.52;;
57832;SDS011;43667;53.036;6.740;2023-02-02T06:45:57;12.02;;;1.38;;
57832;SDS011;43667;53.036;6.740;2023-02-02T06:48:24;7.75;;;1.05;;
57832;SDS011;43667;53.036;6.740;2023-02-02T06:50:50;11.65;;;1.23;;
57832;SDS011;43667;53.036;6.740;2023-02-02T06:53:17;6.38;;;0.77;;
57832;SDS011;43667;53.036;6.740;2023-02-02T06:55:53;9.98;;;1.45;;
57832;SDS011;43667;53.036;6.740;2023-02-02T06:58:20;10.27;;;1.48;;
57832;SDS011;43667;53.036;6.740;2023-02-02T07:00:46;15.35;;;1.30;;
57832;SDS011;43667;53.036;6.740;2023-02-02T07:03:12;10.75;;;1.45;;
57832;SDS011;43667;53.036;6.740;2023-02-02T07:05:38;7.88;;;1.20;;
57832;SDS011;43667;53.036;6.740;2023-02-02T07:08:04;11.95;;;1.52;;
57832;SDS011;43667;53.036;6.740;2023-02-02T07:10:29;9.90;;;1.20;;
57832;SDS011;43667;53.036;6.740;2023-02-02T07:12:55;9.30;;;1.55;;
57832;SDS011;43667;53.036;6.740;2023-02-02T07:15:20;15.77;;;1.35;;
57832;SDS011;43667;53.036;6.740;2023-02-02T07:17:46;10.20;;;1.05;;
57832;SDS011;43667;53.036;6.740;2023-02-02T07:20:12;11.52;;;1.58;;
57832;SDS011;43667;53.036;6.740;2023-02-02T07:22:38;12.80;;;1.20;;
57832;SDS011;43667;53.036;6.740;2023-02-02T07:25:04;8.77;;;0.90;;
57832;SDS011;43667;53.036;6.740;2023-02-02T07:27:31;13.90;;;2.22;;
57832;SDS011;43667;53.036;6.740;2023-02-02T07:29:57;11.63;;;1.33;;
57832;SDS011;43667;53.036;6.740;2023-02-02T07:32:23;9.70;;;1.55;;
57832;SDS011;43667;53.036;6.740;2023-02-02T07:34:48;11.77;;;1.52;;
57832;SDS011;43667;53.036;6.740;2023-02-02T07:37:14;8.40;;;1.25;;
57832;SDS011;43667;53.036;6.740;2023-02-02T07:39:39;9.35;;;1.67;;
57832;SDS011;43667;53.036;6.740;2023-02-02T07:42:09;8.43;;;1.20;;
57832;SDS011;43667;53.036;6.740;2023-02-02T07:44:38;7.78;;;1.20;;
57832;SDS011;43667;53.036;6.740;2023-02-02T07:47:03;12.35;;;1.70;;
57832;SDS011;43667;53.036;6.740;2023-02-02T07:49:29;8.95;;;1.38;;
57832;SDS011;43667;53.036;6.740;2023-02-02T07:51:55;10.63;;;1.83;;
57832;SDS011;43667;53.036;6.740;2023-02-02T07:54:21;12.80;;;1.20;;
57832;SDS011;43667;53.036;6.740;2023-02-02T07:56:46;10.50;;;1.42;;
57832;SDS011;43667;53.036;6.740;2023-02-02T07:59:12;13.02;;;1.30;;
57832;SDS011;43667;53.036;6.740;2023-02-02T08:01:37;10.85;;;1.20;;
57832;SDS011;43667;53.036;6.740;2023-02-02T08:04:03;7.90;;;1.20;;
57832;SDS011;43667;53.036;6.740;2023-02-02T08:06:30;6.40;;;1.20;;
57832;SDS011;43667;53.036;6.740;2023-02-02T08:09:01;7.40;;;1.20;;
57832;SDS011;43667;53.036;6.740;2023-02-02T08:11:28;11.20;;;1.50;;
57832;SDS011;43667;53.036;6.740;2023-02-02T08:13:55;6.90;;;1.25;;
57832;SDS011;43667;53.036;6.740;2023-02-02T08:16:22;6.47;;;1.13;;
57832;SDS011;43667;53.036;6.740;2023-02-02T08:18:49;12.18;;;1.40;;
57832;SDS011;43667;53.036;6.740;2023-02-02T08:21:15;6.40;;;1.40;;
57832;SDS011;43667;53.036;6.740;2023-02-02T08:23:42;7.45;;;1.40;;
57832;SDS011;43667;53.036;6.740;2023-02-02T08:28:39;14.90;;;2.10;;
57832;SDS011;43667;53.036;6.740;2023-02-02T08:31:06;6.57;;;1.35;;
57832;SDS011;43667;53.036;6.740;2023-02-02T08:33:38;7.30;;;1.48;;
57832;SDS011;43667;53.036;6.740;2023-02-02T08:36:04;8.02;;;1.33;;
57832;SDS011;43667;53.036;6.740;2023-02-02T08:38:32;7.20;;;1.67;;
57832;SDS011;43667;53.036;6.740;2023-02-02T08:41:05;7.05;;;1.55;;
57832;SDS011;43667;53.036;6.740;2023-02-02T08:43:31;8.27;;;1.40;;
57832;SDS011;43667;53.036;6.740;2023-02-02T08:45:57;9.75;;;1.50;;
57832;SDS011;43667;53.036;6.740;2023-02-02T08:48:23;6.65;;;1.45;;
57832;SDS011;43667;53.036;6.740;2023-02-02T08:50:52;7.50;;;1.80;;
57832;SDS011;43667;53.036;6.740;2023-02-02T08:53:19;6.20;;;1.50;;
57832;SDS011;43667;53.036;6.740;2023-02-02T08:55:45;7.70;;;1.98;;
57832;SDS011;43667;53.036;6.740;2023-02-02T08:58:10;8.30;;;2.17;;
57832;SDS011;43667;53.036;6.740;2023-02-02T09:00:36;5.80;;;1.70;;
57832;SDS011;43667;53.036;6.740;2023-02-02T09:03:01;8.18;;;1.90;;
57832;SDS011;43667;53.036;6.740;2023-02-02T09:05:27;8.50;;;2.20;;
57832;SDS011;43667;53.036;6.740;2023-02-02T09:07:53;9.80;;;2.33;;
57832;SDS011;43667;53.036;6.740;2023-02-02T09:10:18;7.88;;;2.40;;
57832;SDS011;43667;53.036;6.740;2023-02-02T09:12:44;7.32;;;2.00;;
57832;SDS011;43667;53.036;6.740;2023-02-02T09:15:09;7.40;;;2.30;;
57832;SDS011;43667;53.036;6.740;2023-02-02T09:17:36;9.80;;;2.38;;
57832;SDS011;43667;53.036;6.740;2023-02-02T09:20:02;8.32;;;2.08;;
57832;SDS011;43667;53.036;6.740;2023-02-02T09:22:28;13.65;;;2.25;;
57832;SDS011;43667;53.036;6.740;2023-02-02T09:24:54;8.35;;;2.38;;
57832;SDS011;43667;53.036;6.740;2023-02-02T09:27:20;7.22;;;2.50;;
57832;SDS011;43667;53.036;6.740;2023-02-02T09:29:45;8.13;;;2.65;;
57832;SDS011;43667;53.036;6.740;2023-02-02T09:32:12;9.15;;;3.05;;
57832;SDS011;43667;53.036;6.740;2023-02-02T09:34:38;8.43;;;3.10;;
57832;SDS011;43667;53.036;6.740;2023-02-02T09:37:03;7.43;;;2.78;;
57832;SDS011;43667;53.036;6.740;2023-02-02T09:39:29;8.98;;;3.00;;
57832;SDS011;43667;53.036;6.740;2023-02-02T09:42:55;8.50;;;2.95;;
57832;SDS011;43667;53.036;6.740;2023-02-02T09:45:21;9.43;;;2.97;;
57832;SDS011;43667;53.036;6.740;2023-02-02T09:47:58;9.05;;;2.70;;
57832;SDS011;43667;53.036;6.740;2023-02-02T09:50:48;10.15;;;3.08;;
57832;SDS011;43667;53.036;6.740;2023-02-02T09:53:32;9.30;;;2.53;;
57832;SDS011;43667;53.036;6.740;2023-02-02T09:56:07;7.53;;;2.65;;
57832;SDS011;43667;53.036;6.740;2023-02-02T09:58:44;8.15;;;3.42;;
57832;SDS011;43667;53.036;6.740;2023-02-02T10:01:17;7.45;;;3.20;;
57832;SDS011;43667;53.036;6.740;2023-02-02T10:03:52;10.73;;;3.22;;
57832;SDS011;43667;53.036;6.740;2023-02-02T10:06:31;9.23;;;3.90;;
57832;SDS011;43667;53.036;6.740;2023-02-02T10:09:09;8.93;;;3.67;;
57832;SDS011;43667;53.036;6.740;2023-02-02T10:20:16;5.90;;;2.50;;
57832;SDS011;43667;53.036;6.740;2023-02-02T10:22:52;5.30;;;2.67;;
57832;SDS011;43667;53.036;6.740;2023-02-02T10:25:21;6.35;;;2.38;;
57832;SDS011;43667;53.036;6.740;2023-02-02T10:31:03;6.40;;;2.50;;
57832;SDS011;43667;53.036;6.740;2023-02-02T10:33:41;6.10;;;2.85;;
57832;SDS011;43667;53.036;6.740;2023-02-02T10:38:47;6.63;;;2.22;;
57832;SDS011;43667;53.036;6.740;2023-02-02T10:41:24;7.72;;;2.38;;
57832;SDS011;43667;53.036;6.740;2023-02-02T10:44:16;3.95;;;1.98;;
57832;SDS011;43667;53.036;6.740;2023-02-02T10:46:54;6.10;;;1.80;;
57832;SDS011;43667;53.036;6.740;2023-02-02T10:52:35;5.45;;;1.80;;
57832;SDS011;43667;53.036;6.740;2023-02-02T10:57:45;6.80;;;2.25;;
57832;SDS011;43667;53.036;6.740;2023-02-02T11:00:37;6.13;;;1.80;;
57832;SDS011;43667;53.036;6.740;2023-02-02T11:03:09;5.82;;;1.90;;
57832;SDS011;43667;53.036;6.740;2023-02-02T11:05:37;6.18;;;1.83;;
57832;SDS011;43667;53.036;6.740;2023-02-02T11:11:17;8.20;;;2.25;;
57832;SDS011;43667;53.036;6.740;2023-02-02T11:13:54;6.55;;;1.77;;
57832;SDS011;43667;53.036;6.740;2023-02-02T11:16:23;9.45;;;1.75;;
57832;SDS011;43667;53.036;6.740;2023-02-02T11:18:51;6.90;;;1.92;;
57832;SDS011;43667;53.036;6.740;2023-02-02T11:21:38;7.40;;;1.98;;
57832;SDS011;43667;53.036;6.740;2023-02-02T11:24:19;6.35;;;1.88;;
57832;SDS011;43667;53.036;6.740;2023-02-02T11:37:35;9.23;;;1.58;;
57832;SDS011;43667;53.036;6.740;2023-02-02T11:42:47;7.55;;;1.48;;
57832;SDS011;43667;53.036;6.740;2023-02-02T11:45:16;6.38;;;1.67;;
57832;SDS011;43667;53.036;6.740;2023-02-02T11:47:44;6.40;;;2.00;;
57832;SDS011;43667;53.036;6.740;2023-02-02T11:50:24;5.97;;;1.20;;
57832;SDS011;43667;53.036;6.740;2023-02-02T11:52:52;5.40;;;1.50;;
57832;SDS011;43667;53.036;6.740;2023-02-02T11:55:20;6.35;;;1.30;;
57832;SDS011;43667;53.036;6.740;2023-02-02T11:58:09;5.13;;;1.30;;
57832;SDS011;43667;53.036;6.740;2023-02-02T12:00:52;6.82;;;1.80;;
57832;SDS011;43667;53.036;6.740;2023-02-02T12:03:24;7.40;;;1.98;;
57832;SDS011;43667;53.036;6.740;2023-02-02T12:05:49;8.98;;;2.08;;
57832;SDS011;43667;53.036;6.740;2023-02-02T12:08:15;4.85;;;1.90;;
57832;SDS011;43667;53.036;6.740;2023-02-02T12:10:43;5.88;;;2.00;;
57832;SDS011;43667;53.036;6.740;2023-02-02T12:13:34;4.82;;;1.73;;
57832;SDS011;43667;53.036;6.740;2023-02-02T12:19:01;9.00;;;2.65;;
57832;SDS011;43667;53.036;6.740;2023-02-02T12:21:44;6.30;;;2.47;;
57832;SDS011;43667;53.036;6.740;2023-02-02T12:24:30;3.95;;;2.00;;
57832;SDS011;43667;53.036;6.740;2023-02-02T12:29:48;5.03;;;2.33;;
57832;SDS011;43667;53.036;6.740;2023-02-02T12:32:54;7.03;;;2.58;;
57832;SDS011;43667;53.036;6.740;2023-02-02T12:43:46;6.47;;;2.80;;
57832;SDS011;43667;53.036;6.740;2023-02-02T12:51:54;7.65;;;2.13;;
57832;SDS011;43667;53.036;6.740;2023-02-02T12:54:44;4.07;;;1.88;;
57832;SDS011;43667;53.036;6.740;2023-02-02T12:57:31;7.63;;;2.20;;
57832;SDS011;43667;53.036;6.740;2023-02-02T13:08:27;4.38;;;1.40;;
57832;SDS011;43667;53.036;6.740;2023-02-02T13:10:59;6.13;;;1.63;;
57832;SDS011;43667;53.036;6.740;2023-02-02T13:13:32;3.42;;;1.60;;
57832;SDS011;43667;53.036;6.740;2023-02-02T13:16:05;5.47;;;1.42;;
57832;SDS011;43667;53.036;6.740;2023-02-02T13:18:39;5.07;;;1.00;;
57832;SDS011;43667;53.036;6.740;2023-02-02T13:21:12;3.92;;;0.95;;
57832;SDS011;43667;53.036;6.740;2023-02-02T13:23:45;4.18;;;1.00;;
57832;SDS011;43667;53.036;6.740;2023-02-02T13:26:20;5.43;;;0.85;;
57832;SDS011;43667;53.036;6.740;2023-02-02T13:28:55;4.70;;;0.90;;
57832;SDS011;43667;53.036;6.740;2023-02-02T13:36:51;7.03;;;1.05;;
57832;SDS011;43667;53.036;6.740;2023-02-02T13:39:22;5.65;;;0.65;;
57832;SDS011;43667;53.036;6.740;2023-02-02T13:42:05;3.90;;;1.10;;
57832;SDS011;43667;53.036;6.740;2023-02-02T13:44:42;5.30;;;0.93;;
57832;SDS011;43667;53.036;6.740;2023-02-02T13:47:22;5.15;;;1.23;;
57832;SDS011;43667;53.036;6.740;2023-02-02T13:49:58;3.42;;;0.88;;
57832;SDS011;43667;53.036;6.740;2023-02-02T14:00:37;8.85;;;1.33;;
57832;SDS011;43667;53.036;6.740;2023-02-02T14:08:48;6.05;;;1.30;;
57832;SDS011;43667;53.036;6.740;2023-02-02T14:11:36;7.78;;;1.40;;
57832;SDS011;43667;53.036;6.740;2023-02-02T14:14:16;5.85;;;1.52;;
57832;SDS011;43667;53.036;6.740;2023-02-02T14:24:40;5.78;;;2.35;;
57832;SDS011;43667;53.036;6.740;2023-02-02T14:34:48;6.18;;;2.03;;
57832;SDS011;43667;53.036;6.740;2023-02-02T14:37:53;8.00;;;2.20;;
57832;SDS011;43667;53.036;6.740;2023-02-02T14:40:21;8.10;;;2.25;;
57832;SDS011;43667;53.036;6.740;2023-02-02T14:43:05;5.53;;;2.20;;
57832;SDS011;43667;53.036;6.740;2023-02-02T14:48:39;9.30;;;2.90;;
57832;SDS011;43667;53.036;6.740;2023-02-02T14:51:11;8.90;;;3.33;;
57832;SDS011;43667;53.036;6.740;2023-02-02T14:53:46;5.00;;;3.08;;
57832;SDS011;43667;53.036;6.740;2023-02-02T14:56:16;5.90;;;3.65;;
57832;SDS011;43667;53.036;6.740;2023-02-02T14:58:57;7.90;;;3.70;;
57832;SDS011;43667;53.036;6.740;2023-02-02T15:01:27;8.90;;;4.15;;
57832;SDS011;43667;53.036;6.740;2023-02-02T15:03:56;5.28;;;4.15;;
57832;SDS011;43667;53.036;6.740;2023-02-02T15:14:30;9.25;;;4.82;;
57832;SDS011;43667;53.036;6.740;2023-02-02T15:17:02;11.10;;;4.82;;
57832;SDS011;43667;53.036;6.740;2023-02-02T15:19:32;9.93;;;4.97;;
57832;SDS011;43667;53.036;6.740;2023-02-02T15:24:53;17.30;;;7.65;;
57832;SDS011;43667;53.036;6.740;2023-02-02T15:27:21;10.80;;;6.85;;
57832;SDS011;43667;53.036;6.740;2023-02-02T15:29:50;14.13;;;8.60;;
57832;SDS011;43667;53.036;6.740;2023-02-02T15:32:21;17.30;;;7.68;;
57832;SDS011;43667;53.036;6.740;2023-02-02T15:34:57;14.57;;;9.23;;
57832;SDS011;43667;53.036;6.740;2023-02-02T15:37:29;16.17;;;8.63;;
57832;SDS011;43667;53.036;6.740;2023-02-02T15:40:04;18.98;;;9.73;;
57832;SDS011;43667;53.036;6.740;2023-02-02T15:42:45;14.20;;;8.90;;
57832;SDS011;43667;53.036;6.740;2023-02-02T15:48:04;16.50;;;10.55;;
57832;SDS011;43667;53.036;6.740;2023-02-02T15:50:38;18.17;;;10.20;;
57832;SDS011;43667;53.036;6.740;2023-02-02T15:53:13;21.80;;;11.63;;
57832;SDS011;43667;53.036;6.740;2023-02-02T15:55:42;16.02;;;9.77;;
57832;SDS011;43667;53.036;6.740;2023-02-02T15:58:21;20.83;;;11.05;;
57832;SDS011;43667;53.036;6.740;2023-02-02T16:00:56;20.13;;;10.15;;
57832;SDS011;43667;53.036;6.740;2023-02-02T16:03:25;17.88;;;9.20;;
57832;SDS011;43667;53.036;6.740;2023-02-02T16:06:02;15.00;;;8.90;;
57832;SDS011;43667;53.036;6.740;2023-02-02T16:08:31;17.75;;;9.60;;
57832;SDS011;43667;53.036;6.740;2023-02-02T16:11:12;14.60;;;9.05;;
57832;SDS011;43667;53.036;6.740;2023-02-02T16:13:49;25.73;;;9.57;;
57832;SDS011;43667;53.036;6.740;2023-02-02T16:16:24;16.15;;;8.60;;
57832;SDS011;43667;53.036;6.740;2023-02-02T16:21:33;22.58;;;10.75;;
57832;SDS011;43667;53.036;6.740;2023-02-02T16:24:02;22.10;;;11.00;;
57832;SDS011;43667;53.036;6.740;2023-02-02T16:26:31;19.10;;;10.48;;
57832;SDS011;43667;53.036;6.740;2023-02-02T16:28:58;21.80;;;11.30;;
57832;SDS011;43667;53.036;6.740;2023-02-02T16:31:24;21.60;;;10.82;;
57832;SDS011;43667;53.036;6.740;2023-02-02T16:33:52;18.95;;;9.50;;
57832;SDS011;43667;53.036;6.740;2023-02-02T16:36:27;20.08;;;10.73;;
57832;SDS011;43667;53.036;6.740;2023-02-02T16:38:54;17.83;;;10.63;;
57832;SDS011;43667;53.036;6.740;2023-02-02T16:46:55;21.45;;;10.82;;
57832;SDS011;43667;53.036;6.740;2023-02-02T16:49:22;20.50;;;10.85;;
57832;SDS011;43667;53.036;6.740;2023-02-02T16:52:05;25.98;;;10.65;;
57832;SDS011;43667;53.036;6.740;2023-02-02T16:54:53;23.73;;;11.05;;
57832;SDS011;43667;53.036;6.740;2023-02-02T16:57:25;21.08;;;10.38;;
57832;SDS011;43667;53.036;6.740;2023-02-02T16:59:53;19.57;;;11.37;;
57832;SDS011;43667;53.036;6.740;2023-02-02T17:05:25;25.08;;;10.63;;
57832;SDS011;43667;53.036;6.740;2023-02-02T17:08:03;20.08;;;10.85;;
57832;SDS011;43667;53.036;6.740;2023-02-02T17:15:54;25.83;;;12.45;;
57832;SDS011;43667;53.036;6.740;2023-02-02T17:18:21;26.73;;;13.13;;
57832;SDS011;43667;53.036;6.740;2023-02-02T17:20:46;26.35;;;13.07;;
57832;SDS011;43667;53.036;6.740;2023-02-02T17:23:18;29.70;;;13.70;;
57832;SDS011;43667;53.036;6.740;2023-02-02T17:25:44;35.75;;;14.40;;
57832;SDS011;43667;53.036;6.740;2023-02-02T17:28:13;27.38;;;13.52;;
57832;SDS011;43667;53.036;6.740;2023-02-02T17:30:48;35.65;;;14.75;;
57832;SDS011;43667;53.036;6.740;2023-02-02T17:33:23;28.40;;;14.75;;
57832;SDS011;43667;53.036;6.740;2023-02-02T17:35:50;31.83;;;15.02;;